Time;durP1;ratioP1;P1;durP2;ratioP2;P2;SDS_P1;SDS_P2;PMS_P1;PMS_P2;Temp;Humidity;BMP_temperature;BMP_pressure;BME280_temperature;BME280_humidity;BME280_pressure;Samples;Min_cycle;Max_cycle;Signal;HPM_P1;HPM_P2
2021/10/16 00:00:49;;;;;;;15.85;9.93;;;3.60;99.90;;;;;;4111146;28;20125;-76
2021/10/16 00:02:50;;;;;;;19.10;11.48;;;3.50;99.90;;;;;;4095385;28;20426;-76
2021/10/16 00:04:50;;;;;;;23.33;10.32;;;3.50;99.90;;;;;;4111481;28;20498;-77
2021/10/16 00:06:51;;;;;;;15.65;9.57;;;3.50;99.90;;;;;;4112374;28;20031;-76
2021/10/16 00:08:52;;;;;;;19.27;10.32;;;3.40;99.90;;;;;;4110181;28;20130;-76
2021/10/16 00:10:52;;;;;;;17.42;10.40;;;3.30;99.90;;;;;;4128395;28;20053;-77
2021/10/16 00:12:53;;;;;;;17.98;11.85;;;3.40;99.90;;;;;;4107969;28;20042;-77
2021/10/16 00:14:54;;;;;;;22.42;12.27;;;3.30;99.90;;;;;;4113813;28;20038;-77
2021/10/16 00:16:55;;;;;;;23.27;11.57;;;3.60;99.90;;;;;;4111506;28;20066;-77
2021/10/16 00:18:56;;;;;;;25.55;12.88;;;3.80;99.90;;;;;;4096851;28;20449;-76
2021/10/16 00:20:58;;;;;;;22.40;11.38;;;4.00;99.90;;;;;;4121665;28;20066;-77
2021/10/16 00:22:58;;;;;;;23.83;11.75;;;4.10;99.90;;;;;;4082274;28;20497;-76
2021/10/16 00:24:59;;;;;;;21.90;11.75;;;4.20;99.90;;;;;;4124817;28;20042;-77
2021/10/16 00:27:00;;;;;;;24.05;11.25;;;4.20;99.90;;;;;;4086720;29;20039;-77
2021/10/16 00:29:01;;;;;;;26.02;10.52;;;4.20;99.90;;;;;;4108780;28;20124;-77
2021/10/16 00:31:02;;;;;;;20.25;11.45;;;4.20;99.90;;;;;;4109672;28;20453;-76
2021/10/16 00:33:02;;;;;;;24.27;11.35;;;4.20;99.90;;;;;;4123813;28;20034;-76
2021/10/16 00:35:04;;;;;;;21.77;11.85;;;4.20;99.90;;;;;;4113570;28;20110;-76
2021/10/16 00:37:05;;;;;;;23.60;12.23;;;4.30;99.90;;;;;;4107006;28;20047;-76
2021/10/16 00:39:05;;;;;;;30.42;12.18;;;4.30;99.90;;;;;;4116330;28;20506;-77
2021/10/16 00:41:06;;;;;;;28.38;12.18;;;4.30;99.90;;;;;;4090300;28;20123;-76
2021/10/16 00:43:07;;;;;;;23.23;12.27;;;4.30;99.90;;;;;;4106874;28;20445;-76
2021/10/16 00:45:08;;;;;;;27.58;12.07;;;4.30;99.90;;;;;;4118055;28;20037;-76
2021/10/16 00:47:09;;;;;;;27.67;11.45;;;4.30;99.90;;;;;;4113156;28;20081;-76
2021/10/16 00:49:10;;;;;;;23.92;11.95;;;4.30;99.90;;;;;;4125318;28;20035;-76
2021/10/16 00:51:12;;;;;;;25.08;12.00;;;4.40;99.90;;;;;;4126838;28;20069;-76
2021/10/16 00:53:14;;;;;;;30.48;11.60;;;4.40;99.90;;;;;;4097856;28;20487;-76
2021/10/16 00:55:17;;;;;;;21.02;10.52;;;4.40;99.90;;;;;;4122563;28;20589;-76
2021/10/16 00:57:18;;;;;;;;;;;4.40;99.90;;;;;;4101237;28;20050;-76
2021/10/16 00:59:19;;;;;;;24.85;12.73;;;4.40;99.90;;;;;;4126371;28;19918;-76
2021/10/16 01:01:20;;;;;;;24.65;12.80;;;4.50;99.90;;;;;;4112541;28;20387;-76
2021/10/16 01:03:21;;;;;;;36.42;14.30;;;4.50;99.90;;;;;;4113392;28;20175;-76
2021/10/16 01:05:22;;;;;;;24.23;13.38;;;4.60;99.90;;;;;;4114093;28;20465;-77
2021/10/16 01:07:23;;;;;;;18.55;12.23;;;4.70;99.90;;;;;;4113108;28;20049;-77
2021/10/16 01:09:24;;;;;;;25.30;12.57;;;4.70;99.90;;;;;;4113035;28;20092;-76
2021/10/16 01:11:52;;;;;;;26.13;11.85;;;4.80;99.90;;;;;;4097348;28;20118;-77
2021/10/16 01:13:53;;;;;;;25.80;12.38;;;4.80;99.90;;;;;;4104636;28;20061;-76
2021/10/16 01:15:55;;;;;;;19.75;12.23;;;4.90;99.90;;;;;;4120329;28;20031;-76
2021/10/16 01:17:56;;;;;;;22.63;12.57;;;5.00;99.90;;;;;;4120964;28;20050;-76
2021/10/16 01:20:12;;;;;;;23.88;12.50;;;5.00;99.90;;;;;;4117503;28;20053;-76
2021/10/16 01:22:13;;;;;;;21.52;12.02;;;5.10;99.90;;;;;;4115935;28;20038;-77
2021/10/16 01:24:18;;;;;;;19.63;10.65;;;5.10;99.90;;;;;;4090489;28;20484;-76
2021/10/16 01:26:19;;;;;;;24.80;12.80;;;5.20;99.90;;;;;;4125583;28;20120;-76
2021/10/16 01:28:20;;;;;;;28.30;15.02;;;5.30;99.90;;;;;;4130014;28;20120;-76
2021/10/16 01:30:23;;;;;;;26.42;13.05;;;5.30;99.90;;;;;;4117771;28;20224;-76
2021/10/16 01:32:24;;;;;;;29.42;12.40;;;5.40;99.90;;;;;;4100240;28;20028;-76
2021/10/16 01:34:25;;;;;;;29.05;13.30;;;5.40;99.90;;;;;;4127093;28;20117;-77
2021/10/16 01:36:49;;;;;;;27.92;12.20;;;5.50;99.90;;;;;;4115171;28;20042;-77
2021/10/16 01:38:49;;;;;;;21.55;11.93;;;5.50;99.90;;;;;;4123378;28;20038;-76
2021/10/16 01:40:50;;;;;;;21.30;11.57;;;5.60;99.90;;;;;;4114307;28;20474;-76
2021/10/16 01:42:52;;;;;;;26.35;13.00;;;5.60;99.90;;;;;;4124539;28;20039;-76
2021/10/16 01:44:53;;;;;;;21.65;12.07;;;5.60;99.90;;;;;;4091925;28;20462;-76
2021/10/16 01:46:54;;;;;;;25.92;13.57;;;5.60;99.90;;;;;;4106382;28;20032;-75
2021/10/16 01:48:54;;;;;;;24.75;13.48;;;5.60;99.90;;;;;;4122997;28;20042;-76
2021/10/16 01:50:55;;;;;;;27.92;12.88;;;5.70;99.90;;;;;;4114579;28;20042;-76
2021/10/16 01:52:56;;;;;;;21.15;12.57;;;5.70;99.90;;;;;;4114150;28;20116;-76
2021/10/16 01:54:56;;;;;;;26.20;12.35;;;5.70;99.90;;;;;;4115593;28;20105;-76
2021/10/16 01:56:57;;;;;;;23.65;12.05;;;5.70;99.90;;;;;;4125344;28;20513;-78
2021/10/16 01:59:18;;;;;;;20.95;12.07;;;5.80;99.90;;;;;;4114664;28;20042;-77
2021/10/16 02:01:18;;;;;;;24.10;11.85;;;5.80;99.90;;;;;;4117058;28;20048;-76
2021/10/16 02:03:19;;;;;;;19.98;13.02;;;5.80;99.90;;;;;;4100652;28;20142;-76
2021/10/16 02:05:20;;;;;;;21.48;11.68;;;5.90;99.90;;;;;;4128290;28;20042;-76
2021/10/16 02:07:21;;;;;;;23.42;13.25;;;5.90;99.90;;;;;;4114828;28;20073;-75
2021/10/16 02:09:22;;;;;;;24.23;12.50;;;5.90;99.90;;;;;;4129126;28;20050;-76
2021/10/16 02:11:22;;;;;;;22.02;11.65;;;5.90;99.90;;;;;;4098614;28;20035;-76
2021/10/16 02:13:23;;;;;;;21.95;12.18;;;5.90;99.90;;;;;;4112876;28;20046;-77
2021/10/16 02:15:24;;;;;;;37.13;14.32;;;6.00;99.90;;;;;;4098638;29;20032;-76
2021/10/16 02:17:25;;;;;;;20.58;12.23;;;6.00;99.90;;;;;;4111973;28;20470;-77
2021/10/16 02:19:26;;;;;;;23.25;13.32;;;6.00;99.90;;;;;;4108965;28;20046;-77
2021/10/16 02:21:27;;;;;;;28.33;13.60;;;6.00;99.90;;;;;;4115537;28;20054;-76
2021/10/16 02:23:28;;;;;;;28.27;12.90;;;6.00;99.90;;;;;;4114406;28;20050;-77
2021/10/16 02:25:28;;;;;;;32.70;14.60;;;6.10;99.90;;;;;;4128008;28;20042;-76
2021/10/16 02:27:29;;;;;;;27.65;13.80;;;6.10;99.90;;;;;;4098903;28;20039;-77
2021/10/16 02:29:30;;;;;;;20.48;11.57;;;6.10;99.90;;;;;;4122082;28;20034;-77
2021/10/16 02:31:31;;;;;;;26.15;12.52;;;6.10;99.90;;;;;;4130702;28;20061;-77
2021/10/16 02:33:32;;;;;;;26.30;13.15;;;6.10;99.90;;;;;;4105876;28;20039;-77
2021/10/16 02:35:32;;;;;;;20.38;11.45;;;6.20;99.90;;;;;;4122218;28;20041;-76
2021/10/16 02:37:33;;;;;;;27.30;13.48;;;6.20;99.90;;;;;;4098222;28;20055;-76
2021/10/16 02:39:34;;;;;;;21.70;12.35;;;6.20;99.90;;;;;;4110601;28;20042;-76
2021/10/16 02:41:34;;;;;;;25.83;13.70;;;6.20;99.90;;;;;;4114347;28;20372;-77
2021/10/16 02:43:35;;;;;;;26.35;13.38;;;6.20;99.90;;;;;;4100757;28;20447;-76
2021/10/16 02:45:36;;;;;;;30.92;14.50;;;6.30;99.90;;;;;;4109569;28;20054;-76
2021/10/16 02:47:37;;;;;;;26.20;14.45;;;6.30;99.90;;;;;;4115514;28;20050;-74
2021/10/16 02:49:37;;;;;;;28.27;14.55;;;6.30;99.90;;;;;;4099904;28;20093;-77
2021/10/16 02:51:38;;;;;;;26.20;14.57;;;6.30;99.90;;;;;;4124669;28;20045;-76
2021/10/16 02:53:38;;;;;;;21.95;14.68;;;6.30;99.90;;;;;;4099092;28;20494;-76
2021/10/16 02:55:39;;;;;;;28.80;15.00;;;6.30;99.90;;;;;;4114550;28;20042;-75
2021/10/16 02:57:40;;;;;;;27.45;14.82;;;6.30;99.90;;;;;;4114659;28;20089;-76
2021/10/16 02:59:41;;;;;;;32.92;15.15;;;6.30;99.90;;;;;;4117079;28;20042;-76
2021/10/16 03:01:41;;;;;;;26.38;15.55;;;6.30;99.90;;;;;;4114086;28;20110;-77
2021/10/16 03:03:42;;;;;;;31.23;16.13;;;6.30;99.90;;;;;;4113285;28;20047;-76
2021/10/16 03:05:43;;;;;;;23.75;15.60;;;6.30;99.90;;;;;;4116244;28;20096;-77
2021/10/16 03:07:44;;;;;;;31.08;15.15;;;6.30;99.90;;;;;;4130594;28;20035;-77
2021/10/16 03:09:45;;;;;;;24.05;13.85;;;6.30;99.90;;;;;;4124908;28;20117;-76
2021/10/16 03:11:46;;;;;;;27.33;15.70;;;6.30;99.90;;;;;;4123132;28;20049;-76
2021/10/16 03:13:46;;;;;;;26.08;15.85;;;6.40;99.90;;;;;;4116093;28;20038;-74
2021/10/16 03:15:47;;;;;;;28.38;16.95;;;6.40;99.90;;;;;;4113945;28;20034;-74
2021/10/16 03:17:48;;;;;;;34.00;16.95;;;6.30;99.90;;;;;;4096620;28;20094;-75
2021/10/16 03:19:48;;;;;;;27.33;15.45;;;6.30;99.90;;;;;;4123962;28;20130;-75
2021/10/16 03:21:49;;;;;;;25.05;15.73;;;6.30;99.90;;;;;;4104725;28;20513;-76
2021/10/16 03:23:50;;;;;;;26.35;15.13;;;6.30;99.90;;;;;;4113072;28;20065;-76
2021/10/16 03:25:51;;;;;;;27.95;15.85;;;6.40;99.90;;;;;;4112638;28;20042;-77
2021/10/16 03:27:51;;;;;;;24.45;13.98;;;6.40;99.90;;;;;;4104552;28;20039;-76
2021/10/16 03:29:52;;;;;;;23.52;15.77;;;6.40;99.90;;;;;;4119930;28;20039;-76
2021/10/16 03:31:53;;;;;;;28.42;14.50;;;6.30;99.90;;;;;;4097491;28;20122;-76
2021/10/16 03:33:54;;;;;;;28.08;14.35;;;6.30;99.90;;;;;;4113972;28;20050;-75
2021/10/16 03:35:55;;;;;;;28.08;14.90;;;6.30;99.90;;;;;;4128437;28;20030;-76
2021/10/16 03:37:55;;;;;;;24.95;14.30;;;6.30;99.90;;;;;;4116394;28;20604;-77
2021/10/16 03:39:56;;;;;;;29.77;15.13;;;6.40;99.90;;;;;;4111660;28;20081;-76
2021/10/16 03:41:57;;;;;;;22.35;13.93;;;6.30;99.90;;;;;;4111903;28;20086;-76
2021/10/16 03:43:58;;;;;;;28.90;15.00;;;6.40;99.90;;;;;;4099839;28;20055;-76
2021/10/16 03:45:58;;;;;;;25.40;14.68;;;6.40;99.90;;;;;;4124438;28;20041;-76
2021/10/16 03:47:59;;;;;;;30.75;13.90;;;6.40;99.90;;;;;;4081645;28;20051;-77
2021/10/16 03:50:00;;;;;;;19.98;12.70;;;6.50;99.90;;;;;;4113238;28;20103;-76
2021/10/16 03:52:00;;;;;;;25.73;13.90;;;6.50;99.90;;;;;;4114005;28;20038;-77
2021/10/16 03:54:02;;;;;;;19.52;13.57;;;6.50;99.90;;;;;;4112490;28;20374;-75
2021/10/16 03:56:04;;;;;;;23.23;13.55;;;6.50;99.90;;;;;;4113092;28;20038;-75
2021/10/16 03:58:05;;;;;;;28.02;13.48;;;6.60;99.90;;;;;;4118196;28;20066;-75
2021/10/16 04:00:14;;;;;;;29.88;13.85;;;6.60;99.90;;;;;;4123362;28;20097;-76
2021/10/16 04:02:17;;;;;;;23.00;12.90;;;6.60;99.90;;;;;;4106267;28;20126;-76
2021/10/16 04:04:17;;;;;;;22.13;13.60;;;6.60;99.90;;;;;;4118180;28;20034;-76
2021/10/16 04:06:18;;;;;;;22.50;12.18;;;6.60;99.90;;;;;;4114456;28;20110;-77
2021/10/16 04:08:19;;;;;;;26.27;12.65;;;6.60;99.90;;;;;;4097468;28;20126;-76
2021/10/16 04:10:20;;;;;;;22.80;14.10;;;6.60;99.90;;;;;;4110704;28;20053;-76
2021/10/16 04:12:21;;;;;;;21.65;13.95;;;6.60;99.90;;;;;;4114761;28;20035;-76
2021/10/16 04:14:22;;;;;;;22.55;13.07;;;6.60;99.90;;;;;;4109271;28;20042;-77
2021/10/16 04:16:22;;;;;;;22.85;13.52;;;6.60;99.90;;;;;;4113483;28;20050;-76
2021/10/16 04:18:23;;;;;;;26.00;14.20;;;6.60;99.90;;;;;;4114901;28;20583;-76
2021/10/16 04:20:24;;;;;;;19.17;13.70;;;6.60;99.90;;;;;;4107036;28;20041;-77
2021/10/16 04:22:24;;;;;;;30.20;14.55;;;6.60;99.90;;;;;;4114258;28;20090;-77
2021/10/16 04:24:25;;;;;;;21.77;11.90;;;6.60;99.90;;;;;;4116223;28;20042;-75
2021/10/16 04:26:29;;;;;;;26.45;12.98;;;6.70;99.90;;;;;;4114608;28;20517;-76
2021/10/16 04:28:30;;;;;;;26.35;12.63;;;6.70;99.90;;;;;;4113593;28;20049;-76
2021/10/16 04:30:31;;;;;;;23.45;12.13;;;6.70;99.90;;;;;;4113379;28;20039;-76
2021/10/16 04:32:35;;;;;;;25.15;12.68;;;6.80;99.90;;;;;;4113636;28;20053;-75
2021/10/16 04:34:36;;;;;;;22.23;12.18;;;6.80;99.90;;;;;;4125125;28;20035;-76
2021/10/16 04:36:37;;;;;;;23.27;12.25;;;6.80;99.90;;;;;;4122601;28;20049;-77
2021/10/16 04:38:38;;;;;;;20.00;12.25;;;6.80;99.90;;;;;;4100107;28;20050;-76
2021/10/16 04:40:39;;;;;;;19.95;10.65;;;6.90;99.90;;;;;;4106739;28;20049;-76
2021/10/16 04:42:41;;;;;;;25.20;13.20;;;6.90;99.90;;;;;;4127769;28;20050;-75
2021/10/16 04:44:42;;;;;;;19.63;10.85;;;6.80;99.90;;;;;;4120946;28;20101;-76
2021/10/16 04:46:43;;;;;;;21.75;12.05;;;6.80;99.90;;;;;;4101494;28;20043;-76
2021/10/16 04:48:44;;;;;;;16.77;12.15;;;6.90;99.90;;;;;;4109050;28;20194;-76
2021/10/16 04:50:46;;;;;;;26.52;12.25;;;6.90;99.90;;;;;;4112026;28;20039;-76
2021/10/16 04:52:47;;;;;;;25.25;12.40;;;6.90;99.90;;;;;;4110172;28;20137;-76
2021/10/16 04:54:47;;;;;;;26.27;11.90;;;7.00;99.90;;;;;;4088137;28;20042;-76
2021/10/16 04:56:48;;;;;;;25.88;12.25;;;7.00;99.90;;;;;;4114044;28;20043;-76
2021/10/16 04:58:49;;;;;;;29.83;13.90;;;7.00;99.90;;;;;;4127640;28;20097;-76
2021/10/16 05:00:49;;;;;;;31.52;13.65;;;7.00;99.90;;;;;;4101787;28;20031;-76
2021/10/16 05:02:50;;;;;;;27.52;14.77;;;7.00;99.90;;;;;;4106462;28;20041;-76
2021/10/16 05:04:52;;;;;;;23.65;13.95;;;7.00;99.90;;;;;;4112307;28;20043;-76
2021/10/16 05:06:54;;;;;;;31.17;14.95;;;7.00;99.90;;;;;;4096735;28;20039;-76
2021/10/16 05:08:55;;;;;;;25.40;13.27;;;7.00;99.90;;;;;;4098835;28;20468;-76
2021/10/16 05:10:56;;;;;;;21.52;13.52;;;6.90;99.90;;;;;;4125465;28;20077;-76
2021/10/16 05:12:57;;;;;;;25.48;12.38;;;6.90;99.90;;;;;;4098736;28;20028;-76
2021/10/16 05:14:58;;;;;;;24.45;11.68;;;7.00;99.90;;;;;;4110823;28;20038;-76
2021/10/16 05:16:59;;;;;;;25.45;12.80;;;7.00;99.90;;;;;;4129160;28;20086;-76
2021/10/16 05:18:59;;;;;;;22.10;13.32;;;7.00;99.90;;;;;;4125909;28;20038;-76
2021/10/16 05:21:00;;;;;;;29.83;13.75;;;7.00;99.90;;;;;;4096735;28;20058;-75
2021/10/16 05:23:01;;;;;;;23.02;12.00;;;7.00;99.90;;;;;;4095778;28;20134;-75
2021/10/16 05:25:02;;;;;;;23.05;11.55;;;7.00;99.90;;;;;;4113744;28;20077;-76
2021/10/16 05:27:03;;;;;;;23.35;13.18;;;7.10;99.90;;;;;;4110398;28;20114;-76
2021/10/16 05:29:04;;;;;;;23.10;14.50;;;7.10;99.90;;;;;;4097604;28;20055;-76
2021/10/16 05:31:05;;;;;;;27.73;13.75;;;7.10;99.90;;;;;;4124158;28;20070;-76
2021/10/16 05:33:06;;;;;;;27.45;13.23;;;7.10;99.90;;;;;;4112245;28;20046;-76
2021/10/16 05:35:07;;;;;;;24.23;13.07;;;7.10;99.90;;;;;;4112827;28;20050;-76
2021/10/16 05:37:09;;;;;;;27.27;13.88;;;7.20;99.90;;;;;;4097563;28;20672;-76
2021/10/16 05:39:09;;;;;;;27.25;12.73;;;7.10;99.90;;;;;;4106977;28;20043;-76
2021/10/16 05:41:10;;;;;;;20.85;12.70;;;7.20;99.90;;;;;;4118164;28;20102;-77
2021/10/16 05:43:11;;;;;;;29.13;13.57;;;7.20;99.90;;;;;;4104615;28;20079;-77
2021/10/16 05:45:12;;;;;;;29.13;14.55;;;7.20;99.90;;;;;;4103862;28;20054;-76
2021/10/16 05:47:13;;;;;;;21.92;12.55;;;7.20;99.90;;;;;;4113456;28;20454;-76
2021/10/16 05:49:14;;;;;;;26.88;13.25;;;7.20;99.90;;;;;;4113586;28;20043;-76
2021/10/16 05:51:15;;;;;;;22.38;13.57;;;7.20;99.90;;;;;;4103406;28;20130;-76
2021/10/16 05:53:16;;;;;;;28.80;13.45;;;7.20;99.90;;;;;;4127292;28;20533;-76
2021/10/16 05:55:17;;;;;;;28.58;13.95;;;7.20;99.90;;;;;;4110762;28;20527;-76
2021/10/16 05:57:17;;;;;;;28.08;14.10;;;7.20;99.90;;;;;;4112781;28;20115;-75
2021/10/16 05:59:18;;;;;;;30.80;14.35;;;7.20;99.90;;;;;;4107008;28;20467;-75
2021/10/16 06:01:19;;;;;;;24.27;13.95;;;7.20;99.90;;;;;;4112987;28;20046;-76
2021/10/16 06:03:20;;;;;;;37.78;17.33;;;7.20;99.90;;;;;;4107217;28;20036;-76
2021/10/16 06:05:21;;;;;;;24.30;15.13;;;7.20;99.90;;;;;;4113482;28;21081;-76
2021/10/16 06:07:21;;;;;;;28.45;14.30;;;7.20;99.90;;;;;;4112462;28;20602;-75
2021/10/16 06:09:22;;;;;;;26.40;14.70;;;7.20;99.90;;;;;;4115781;28;20051;-76
2021/10/16 06:11:23;;;;;;;26.27;13.90;;;7.30;99.90;;;;;;4130364;28;20054;-75
2021/10/16 06:13:24;;;;;;;28.25;13.77;;;7.30;99.90;;;;;;4099749;28;20403;-75
2021/10/16 06:15:24;;;;;;;27.42;14.13;;;7.30;99.90;;;;;;4098554;28;20078;-75
2021/10/16 06:17:25;;;;;;;33.10;14.57;;;7.30;99.90;;;;;;4130530;28;20589;-75
2021/10/16 06:19:26;;;;;;;29.77;15.43;;;7.30;99.90;;;;;;4114535;28;20042;-77
2021/10/16 06:21:28;;;;;;;24.20;13.98;;;7.30;99.90;;;;;;4115520;28;20521;-76
2021/10/16 06:23:29;;;;;;;28.92;13.48;;;7.30;99.90;;;;;;4115612;28;20128;-75
2021/10/16 06:25:30;;;;;;;33.55;15.90;;;7.30;99.90;;;;;;4125173;28;20363;-76
2021/10/16 06:27:32;;;;;;;28.38;13.13;;;7.30;99.90;;;;;;4114018;28;20050;-76
2021/10/16 06:29:32;;;;;;;30.65;14.55;;;7.30;99.90;;;;;;4122685;28;20054;-76
2021/10/16 06:31:34;;;;;;;26.45;14.32;;;7.40;99.90;;;;;;4101990;28;20046;-75
2021/10/16 06:33:35;;;;;;;28.17;13.63;;;7.40;99.90;;;;;;4111141;28;20047;-76
2021/10/16 06:35:38;;;;;;;25.75;13.23;;;7.40;99.90;;;;;;4103592;28;21444;-76
2021/10/16 06:37:38;;;;;;;29.50;13.43;;;7.50;99.90;;;;;;4127641;28;20035;-76
2021/10/16 06:39:39;;;;;;;27.15;13.23;;;7.60;99.90;;;;;;4115886;28;20133;-75
2021/10/16 06:41:40;;;;;;;24.80;12.98;;;7.60;99.90;;;;;;4111375;28;20114;-75
2021/10/16 06:43:41;;;;;;;32.60;14.93;;;7.70;99.90;;;;;;4114547;28;20166;-76
2021/10/16 06:45:42;;;;;;;35.13;15.13;;;7.70;99.90;;;;;;4088652;28;20039;-76
2021/10/16 06:47:43;;;;;;;34.03;15.23;;;7.70;99.90;;;;;;4108162;28;20053;-76
2021/10/16 06:49:43;;;;;;;27.70;13.55;;;7.70;99.90;;;;;;4103400;28;20486;-75
2021/10/16 06:51:44;;;;;;;30.60;13.23;;;7.80;99.90;;;;;;4121636;28;20077;-76
2021/10/16 06:53:45;;;;;;;31.88;13.43;;;7.80;99.90;;;;;;4108549;28;20039;-76
2021/10/16 06:55:46;;;;;;;37.78;14.77;;;7.90;99.90;;;;;;4113058;28;20047;-76
2021/10/16 06:57:46;;;;;;;29.23;13.27;;;7.90;99.90;;;;;;4116385;28;20026;-75
2021/10/16 06:59:47;;;;;;;25.52;13.60;;;7.90;99.90;;;;;;4113830;28;20097;-75
2021/10/16 07:01:48;;;;;;;30.25;13.93;;;7.90;99.90;;;;;;4104737;28;20495;-75
2021/10/16 07:03:49;;;;;;;34.10;14.85;;;8.00;99.90;;;;;;4114891;28;20047;-76
2021/10/16 07:05:49;;;;;;;31.08;14.02;;;8.00;99.90;;;;;;4098672;28;20035;-75
2021/10/16 07:07:50;;;;;;;30.00;14.95;;;8.10;99.90;;;;;;4113783;28;20038;-76
2021/10/16 07:09:51;;;;;;;29.05;13.77;;;8.10;99.90;;;;;;4125621;28;20034;-76
2021/10/16 07:11:52;;;;;;;22.80;14.35;;;8.20;99.90;;;;;;4113359;28;20141;-76
2021/10/16 07:13:52;;;;;;;28.25;12.88;;;8.20;99.90;;;;;;4113495;28;20119;-76
2021/10/16 07:15:53;;;;;;;26.73;15.25;;;8.20;99.90;;;;;;4114077;28;20043;-75
2021/10/16 07:17:54;;;;;;;34.58;14.60;;;8.20;99.90;;;;;;4115185;28;20035;-76
2021/10/16 07:19:55;;;;;;;24.45;14.02;;;8.30;99.90;;;;;;4113989;28;20058;-75
2021/10/16 07:21:56;;;;;;;30.20;14.05;;;8.30;99.90;;;;;;4128351;28;20030;-75
2021/10/16 07:23:56;;;;;;;26.40;13.88;;;8.40;99.90;;;;;;4114220;28;20067;-75
2021/10/16 07:25:58;;;;;;;32.88;15.02;;;8.40;99.90;;;;;;4112812;28;20043;-76
2021/10/16 07:27:59;;;;;;;30.30;13.75;;;8.40;99.90;;;;;;4128347;28;20046;-75
2021/10/16 07:30:00;;;;;;;32.38;14.30;;;8.50;99.90;;;;;;4115475;28;20066;-76
2021/10/16 07:32:00;;;;;;;30.27;14.82;;;8.60;99.90;;;;;;4114700;28;20046;-76
2021/10/16 07:34:02;;;;;;;30.33;15.27;;;8.60;99.90;;;;;;4113191;28;21733;-75
2021/10/16 07:36:03;;;;;;;25.23;14.25;;;8.70;99.90;;;;;;4126038;28;20543;-73
2021/10/16 07:38:04;;;;;;;26.25;13.85;;;8.80;99.90;;;;;;4112402;28;20121;-75
2021/10/16 07:40:06;;;;;;;32.03;13.27;;;8.80;99.90;;;;;;4107904;28;20423;-75
2021/10/16 07:42:06;;;;;;;28.58;14.48;;;8.90;99.90;;;;;;4114791;28;20550;-75
2021/10/16 07:44:07;;;;;;;29.42;13.02;;;8.90;99.90;;;;;;4118462;28;20089;-75
2021/10/16 07:46:08;;;;;;;33.35;13.15;;;9.00;99.90;;;;;;4107139;28;20066;-76
2021/10/16 07:48:09;;;;;;;25.85;12.55;;;9.00;99.90;;;;;;4114990;28;20177;-76
2021/10/16 07:50:09;;;;;;;21.23;11.43;;;9.00;99.90;;;;;;4114272;28;20039;-76
2021/10/16 07:52:10;;;;;;;34.95;12.20;;;9.10;99.90;;;;;;4119456;28;20042;-74
2021/10/16 07:54:11;;;;;;;37.50;14.23;;;9.20;99.90;;;;;;4114736;28;20027;-75
2021/10/16 07:56:12;;;;;;;30.85;13.82;;;9.20;99.90;;;;;;4112264;28;20034;-75
2021/10/16 07:58:13;;;;;;;28.85;12.25;;;9.20;99.90;;;;;;4111586;28;20086;-74
2021/10/16 08:00:15;;;;;;;29.58;12.63;;;9.30;99.90;;;;;;4114320;28;20031;-75
2021/10/16 08:02:16;;;;;;;29.93;13.27;;;9.40;99.90;;;;;;4115018;28;20039;-76
2021/10/16 08:04:17;;;;;;;23.65;11.40;;;9.50;99.90;;;;;;4113484;28;20034;-75
2021/10/16 08:06:17;;;;;;;22.20;11.20;;;9.50;99.90;;;;;;4114347;28;20042;-75
2021/10/16 08:08:18;;;;;;;26.77;11.82;;;9.60;99.90;;;;;;4129045;28;20312;-75
2021/10/16 08:10:21;;;;;;;27.63;13.10;;;9.60;99.90;;;;;;4115802;28;20038;-75
2021/10/16 08:12:23;;;;;;;23.50;10.98;;;9.60;99.90;;;;;;4114189;28;20046;-75
2021/10/16 08:14:23;;;;;;;28.27;11.77;;;9.60;99.90;;;;;;4120158;28;20502;-75
2021/10/16 08:16:24;;;;;;;17.98;10.30;;;9.80;99.90;;;;;;4102566;28;20098;-75
2021/10/16 08:18:25;;;;;;;29.48;12.55;;;9.80;99.90;;;;;;4098279;28;20032;-75
2021/10/16 08:20:27;;;;;;;22.58;10.40;;;9.90;99.90;;;;;;4113220;28;20039;-75
2021/10/16 08:22:29;;;;;;;18.98;10.00;;;10.10;99.90;;;;;;4114130;28;20649;-76
2021/10/16 08:24:30;;;;;;;19.58;9.02;;;10.20;99.90;;;;;;4125053;28;20038;-75
2021/10/16 08:26:31;;;;;;;17.88;9.13;;;10.30;99.90;;;;;;4110752;28;20041;-76
2021/10/16 08:28:32;;;;;;;19.90;8.02;;;10.30;99.90;;;;;;4112922;28;20466;-75
2021/10/16 08:30:32;;;;;;;28.80;8.75;;;10.30;99.90;;;;;;4111195;28;20027;-75
2021/10/16 08:32:35;;;;;;;32.08;8.48;;;10.40;99.90;;;;;;4096390;28;20046;-76
2021/10/16 08:34:35;;;;;;;18.23;7.45;;;10.40;99.90;;;;;;4112771;28;20039;-76
2021/10/16 08:36:36;;;;;;;18.23;8.15;;;10.50;99.90;;;;;;4114037;28;20504;-75
2021/10/16 08:38:37;;;;;;;19.50;7.38;;;10.60;99.90;;;;;;4112168;28;20489;-75
2021/10/16 08:40:38;;;;;;;25.92;11.02;;;10.60;99.90;;;;;;4110344;28;20054;-75
2021/10/16 08:42:39;;;;;;;20.88;11.43;;;10.60;99.90;;;;;;4095667;28;20043;-75
2021/10/16 08:44:40;;;;;;;23.95;8.82;;;10.60;99.90;;;;;;4112649;28;20066;-75
2021/10/16 08:46:43;;;;;;;16.92;6.80;;;10.70;99.90;;;;;;4110324;28;20198;-75
2021/10/16 08:48:44;;;;;;;15.90;8.05;;;10.80;99.90;;;;;;4112607;28;20086;-76
2021/10/16 08:50:50;;;;;;;21.77;10.07;;;10.80;99.90;;;;;;4113470;28;20039;-76
2021/10/16 08:52:50;;;;;;;22.65;8.38;;;10.90;99.90;;;;;;4125835;28;20038;-76
2021/10/16 08:54:51;;;;;;;25.00;8.80;;;11.00;99.90;;;;;;4113521;28;20115;-77
2021/10/16 08:56:52;;;;;;;21.88;7.50;;;11.10;99.90;;;;;;4112822;28;20034;-76
2021/10/16 08:58:53;;;;;;;18.80;8.00;;;11.20;99.90;;;;;;4096070;29;20042;-75
2021/10/16 09:00:54;;;;;;;18.48;6.85;;;11.40;99.90;;;;;;4110688;28;20042;-75
2021/10/16 09:02:55;;;;;;;19.42;7.00;;;11.60;99.90;;;;;;4112116;28;20061;-75
2021/10/16 09:05:13;;;;;;;16.73;6.93;;;11.80;99.90;;;;;;4114682;28;20479;-76
2021/10/16 09:07:23;;;;;;;17.10;6.78;;;11.80;99.90;;;;;;4087411;28;20039;-76
2021/10/16 09:09:29;;;;;;;12.95;6.50;;;11.90;99.90;;;;;;4112500;28;20038;-77
2021/10/16 09:11:45;;;;;;;16.75;7.32;;;12.10;99.90;;;;;;4113981;28;20042;-76
2021/10/16 09:14:04;;;;;;;19.85;7.35;;;12.30;99.90;;;;;;4111365;28;20050;-77
2021/10/16 09:16:05;;;;;;;15.30;5.95;;;12.50;99.90;;;;;;4123217;28;20034;-76
2021/10/16 09:18:07;;;;;;;12.02;6.47;;;12.50;99.90;;;;;;4106589;28;20483;-76
2021/10/16 09:20:10;;;;;;;16.83;5.97;;;12.60;99.90;;;;;;4106810;28;20431;-76
2021/10/16 09:22:20;;;;;;;12.90;5.82;;;12.50;99.90;;;;;;4111718;28;20475;-76
2021/10/16 09:24:32;;;;;;;18.67;7.00;;;12.50;99.90;;;;;;4101308;28;20063;-76
2021/10/16 09:26:35;;;;;;;19.50;8.20;;;12.50;99.90;;;;;;4115499;28;20038;-76
2021/10/16 09:28:38;;;;;;;;;;;12.60;99.90;;;;;;4117443;28;20031;-76
2021/10/16 09:30:47;;;;;;;12.93;6.72;;;12.50;99.90;;;;;;4100703;28;19926;-76
2021/10/16 09:32:56;;;;;;;20.52;6.28;;;12.40;99.90;;;;;;4085656;28;20105;-76
2021/10/16 09:35:05;;;;;;;20.90;8.77;;;12.40;99.90;;;;;;4097534;28;20431;-76
2021/10/16 09:37:11;;;;;;;19.40;8.88;;;12.50;99.90;;;;;;4096866;28;20049;-75
2021/10/16 09:39:17;;;;;;;23.67;8.77;;;12.60;99.90;;;;;;4099885;28;20420;-75
2021/10/16 09:41:28;;;;;;;15.60;6.68;;;12.60;99.90;;;;;;4100165;28;20233;-75
2021/10/16 09:43:29;;;;;;;24.67;6.40;;;12.70;99.90;;;;;;4087449;28;20181;-76
2021/10/16 09:45:32;;;;;;;11.88;6.45;;;12.80;99.90;;;;;;4097382;28;20465;-76
2021/10/16 09:47:33;;;;;;;16.83;6.45;;;12.80;99.90;;;;;;4102720;28;20039;-75
2021/10/16 09:49:38;;;;;;;16.83;6.95;;;12.80;99.90;;;;;;4086569;28;20109;-75
2021/10/16 09:51:51;;;;;;;20.48;6.43;;;12.70;99.90;;;;;;4100560;28;20047;-75
2021/10/16 09:54:07;;;;;;;19.48;7.60;;;12.50;99.90;;;;;;4099382;28;20071;-75
2021/10/16 09:56:09;;;;;;;17.45;6.05;;;12.60;99.90;;;;;;4114943;28;20050;-76
2021/10/16 09:58:10;;;;;;;21.40;6.85;;;12.70;99.90;;;;;;4099541;28;20051;-76
2021/10/16 10:00:14;;;;;;;21.30;6.50;;;12.80;99.90;;;;;;4101413;28;20113;-76
2021/10/16 10:02:15;;;;;;;18.23;6.35;;;12.90;99.90;;;;;;4115959;28;20093;-76
2021/10/16 10:04:18;;;;;;;18.77;8.38;;;13.00;99.90;;;;;;4100622;28;20201;-76
2021/10/16 10:06:20;;;;;;;19.38;6.60;;;13.10;99.90;;;;;;4115360;28;20038;-75
2021/10/16 10:08:21;;;;;;;15.68;7.00;;;13.20;99.90;;;;;;4107955;28;26665;-74
2021/10/16 10:10:22;;;;;;;18.65;5.88;;;13.30;99.90;;;;;;4102072;28;20062;-74
2021/10/16 10:12:23;;;;;;;19.73;5.88;;;13.10;99.90;;;;;;4101021;28;20034;-75
2021/10/16 10:14:25;;;;;;;18.50;7.47;;;13.20;99.90;;;;;;4116889;28;20144;-75
2021/10/16 10:16:26;;;;;;;17.83;6.25;;;13.30;99.90;;;;;;4100145;28;20072;-75
2021/10/16 10:20:47;;;;;;;18.73;6.65;;;13.40;99.90;;;;;;4099872;28;20045;-75
2021/10/16 10:22:48;;;;;;;17.42;6.30;;;13.50;99.90;;;;;;4115774;28;20041;-75
2021/10/16 10:24:54;;;;;;;15.93;6.50;;;13.50;99.90;;;;;;4099291;28;20081;-75
2021/10/16 10:27:06;;;;;;;17.63;7.78;;;13.40;99.90;;;;;;4090327;28;20042;-76
2021/10/16 10:29:13;;;;;;;15.45;6.20;;;13.40;99.90;;;;;;4098977;28;20043;-75